Time;durP1;ratioP1;P1;durP2;ratioP2;P2;SDS_P1;SDS_P2;PMS_P1;PMS_P2;Temp;Humidity;BMP_temperature;BMP_pressure;BME280_temperature;BME280_humidity;BME280_pressure;Samples;Min_cycle;Max_cycle;Signal;HPM_P1;HPM_P2
2023/10/20 16:58:38;;;;;;;17.85;13.63;;;;;;;;;;6274978;22;20054;-86
2023/10/20 17:01:05;;;;;;;14.93;10.48;;;;;;;;;;6278658;22;20012;-86
2023/10/20 17:03:30;;;;;;;19.42;9.27;;;;;;;;;;6251720;22;20000;-86
2023/10/20 17:05:56;;;;;;;18.30;8.95;;;;;;;;;;6278816;22;20000;-86
2023/10/20 17:08:22;;;;;;;13.75;8.23;;;;;;;;;;6251691;22;20087;-85
2023/10/20 17:10:48;;;;;;;14.05;9.10;;;;;;;;;;6278586;22;20031;-85
2023/10/20 17:13:14;;;;;;;15.52;7.82;;;;;;;;;;6278780;22;19999;-87
2023/10/20 17:15:39;;;;;;;18.58;9.77;;;;;;;;;;6278074;22;20095;-86
2023/10/20 17:18:08;;;;;;;19.15;11.18;;;;;;;;;;6251552;22;20016;-86
2023/10/20 17:20:43;;;;;;;16.23;9.95;;;;;;;;;;6251528;22;20082;-86
2023/10/20 17:23:08;;;;;;;17.95;9.55;;;;;;;;;;6278728;22;20029;-86
2023/10/20 17:25:37;;;;;;;18.52;9.45;;;;;;;;;;6278350;22;20031;-86
2023/10/20 17:28:05;;;;;;;14.40;8.82;;;;;;;;;;6251242;22;20346;-86
2023/10/20 17:30:30;;;;;;;14.10;8.43;;;;;;;;;;6251333;22;20036;-86
2023/10/20 17:32:56;;;;;;;15.32;8.50;;;;;;;;;;6278337;22;20011;-86
2023/10/20 17:35:22;;;;;;;26.42;19.92;;;;;;;;;;6278903;22;20003;-86
2023/10/20 17:37:49;;;;;;;24.38;15.70;;;;;;;;;;6278773;22;20019;-86
2023/10/20 17:40:15;;;;;;;19.02;10.77;;;;;;;;;;6278735;22;19999;-86
2023/10/20 17:42:41;;;;;;;22.48;12.88;;;;;;;;;;6279471;22;20000;-86
2023/10/20 17:45:07;;;;;;;19.67;17.27;;;;;;;;;;6251361;22;20087;-87
2023/10/20 17:47:32;;;;;;;25.83;11.45;;;;;;;;;;6251298;22;20011;-87
2023/10/20 17:49:57;;;;;;;13.32;10.73;;;;;;;;;;6278200;22;20015;-87
2023/10/20 17:52:23;;;;;;;17.58;10.57;;;;;;;;;;6277933;22;20008;-85
2023/10/20 17:54:49;;;;;;;14.30;10.52;;;;;;;;;;6278659;22;20022;-87
2023/10/20 17:57:15;;;;;;;15.63;10.68;;;;;;;;;;6251145;22;20069;-86
2023/10/20 17:59:41;;;;;;;21.88;11.63;;;;;;;;;;6278111;22;20046;-86
2023/10/20 18:02:08;;;;;;;23.50;13.98;;;;;;;;;;6251251;22;20014;-85
2023/10/20 18:04:33;;;;;;;25.63;12.30;;;;;;;;;;6251160;22;20337;-85
2023/10/20 18:06:59;;;;;;;18.23;10.52;;;;;;;;;;6278217;22;20090;-85
2023/10/20 18:09:24;;;;;;;13.18;8.82;;;;;;;;;;6278002;22;20007;-85
2023/10/20 18:11:50;;;;;;;14.82;8.85;;;;;;;;;;6278572;22;20308;-86
2023/10/20 18:14:15;;;;;;;17.65;10.52;;;;;;;;;;6278941;22;20365;-84
2023/10/20 18:16:41;;;;;;;17.48;10.45;;;;;;;;;;6278551;22;20007;-85
2023/10/20 18:19:07;;;;;;;17.65;9.63;;;;;;;;;;6278125;22;20004;-84
2023/10/20 18:21:35;;;;;;;18.73;9.02;;;;;;;;;;6251318;22;20010;-85
2023/10/20 18:24:03;;;;;;;14.13;8.68;;;;;;;;;;6278129;22;20461;-84
2023/10/20 18:26:29;;;;;;;20.80;9.50;;;;;;;;;;6278125;22;20419;-85
2023/10/20 18:28:54;;;;;;;15.45;8.60;;;;;;;;;;6278124;22;20053;-85
2023/10/20 18:31:21;;;;;;;19.05;9.25;;;;;;;;;;6278274;22;20007;-84
2023/10/20 18:33:47;;;;;;;18.77;11.25;;;;;;;;;;6278035;22;20117;-85
2023/10/20 18:36:12;;;;;;;17.65;9.68;;;;;;;;;;6277970;22;20003;-88
2023/10/20 18:38:38;;;;;;;22.08;12.60;;;;;;;;;;6250803;22;20004;-87
2023/10/20 18:41:05;;;;;;;16.23;10.95;;;;;;;;;;6278310;22;20114;-87
2023/10/20 18:43:33;;;;;;;19.90;9.75;;;;;;;;;;6249729;22;20477;-87
2023/10/20 18:45:59;;;;;;;16.90;8.55;;;;;;;;;;6250551;22;20046;-86
2023/10/20 18:48:26;;;;;;;9.55;7.55;;;;;;;;;;6250780;22;20335;-88
2023/10/20 18:50:51;;;;;;;17.88;7.80;;;;;;;;;;6250876;22;19999;-88
2023/10/20 18:53:17;;;;;;;15.27;8.25;;;;;;;;;;6277819;22;20011;-88
2023/10/20 18:55:42;;;;;;;10.27;8.75;;;;;;;;;;6250779;22;20468;-88
2023/10/20 18:58:09;;;;;;;12.45;8.60;;;;;;;;;;6277605;22;20094;-89
2023/10/20 19:00:35;;;;;;;12.93;8.63;;;;;;;;;;6250992;22;20004;-87
2023/10/20 19:03:03;;;;;;;16.38;8.77;;;;;;;;;;6277542;22;20323;-86
2023/10/20 19:05:29;;;;;;;13.85;8.02;;;;;;;;;;6277762;22;20422;-84
2023/10/20 19:07:54;;;;;;;16.95;8.48;;;;;;;;;;6250200;22;20014;-88
2023/10/20 19:49:07;;;;;;;11.80;8.60;;;;;;;;;;6193456;22;20267;-88
2023/10/20 19:51:32;;;;;;;15.95;9.88;;;;;;;;;;6277664;22;20004;-89
2023/10/20 19:53:58;;;;;;;10.40;8.00;;;;;;;;;;6250543;22;20011;-88
2023/10/20 19:56:24;;;;;;;18.70;8.43;;;;;;;;;;6277331;22;20003;-88
2023/10/20 19:58:49;;;;;;;18.10;8.55;;;;;;;;;;6277223;22;20106;-89
2023/10/20 20:01:15;;;;;;;16.83;8.98;;;;;;;;;;6250571;22;20008;-92
2023/10/20 20:03:40;;;;;;;11.32;7.90;;;;;;;;;;6250794;22;20038;-90
2023/10/20 20:06:13;;;;;;;13.02;8.23;;;;;;;;;;6250733;22;20018;-89
2023/10/20 20:08:39;;;;;;;12.35;7.53;;;;;;;;;;6251179;22;20030;-89
2023/10/20 20:11:05;;;;;;;14.23;7.88;;;;;;;;;;6277926;22;20031;-89
2023/10/20 20:13:31;;;;;;;16.02;7.57;;;;;;;;;;6251102;22;20000;-90
2023/10/20 20:16:09;;;;;;;12.90;8.05;;;;;;;;;;6278363;22;20390;-90
2023/10/20 20:18:39;;;;;;;12.18;7.53;;;;;;;;;;6278057;22;20000;-90
2023/10/20 20:21:05;;;;;;;;;;;;;;;;;;6251472;22;20007;-90
2023/10/20 20:23:30;;;;;;;12.85;7.93;;;;;;;;;;6251203;22;19907;-90
2023/10/20 20:25:56;;;;;;;12.18;6.90;;;;;;;;;;6250858;22;20522;-90
2023/10/20 20:28:21;;;;;;;11.43;7.43;;;;;;;;;;6250684;22;20088;-89
2023/10/20 20:30:50;;;;;;;12.55;6.82;;;;;;;;;;6278044;22;20415;-90
2023/10/20 20:33:18;;;;;;;13.67;7.80;;;;;;;;;;6250804;22;20012;-91
2023/10/20 20:35:44;;;;;;;11.98;7.15;;;;;;;;;;6251557;22;20007;-90
2023/10/20 20:38:10;;;;;;;10.30;6.78;;;;;;;;;;6278516;22;19999;-89
2023/10/20 20:40:38;;;;;;;12.90;6.95;;;;;;;;;;6277962;22;19999;-90
2023/10/20 20:43:04;;;;;;;13.27;7.70;;;;;;;;;;6277445;22;20003;-89
2023/10/20 20:45:31;;;;;;;10.32;7.50;;;;;;;;;;6251041;22;20030;-91
2023/10/20 20:47:58;;;;;;;17.05;6.25;;;;;;;;;;6250629;22;20009;-90
2023/10/20 20:50:24;;;;;;;16.23;7.65;;;;;;;;;;6277389;22;20007;-91
2023/10/20 20:52:49;;;;;;;15.05;7.25;;;;;;;;;;6250706;22;20030;-91
2023/10/20 20:55:14;;;;;;;12.52;6.20;;;;;;;;;;6278104;22;20006;-91
2023/10/20 20:57:40;;;;;;;11.13;6.18;;;;;;;;;;6251038;22;20020;-90
2023/10/20 21:00:06;;;;;;;10.52;6.32;;;;;;;;;;6278045;22;20003;-90
2023/10/20 21:02:31;;;;;;;11.63;6.82;;;;;;;;;;6250519;22;19999;-90
2023/10/20 21:04:57;;;;;;;10.88;5.75;;;;;;;;;;6277949;22;20430;-90
2023/10/20 21:07:23;;;;;;;7.93;5.63;;;;;;;;;;6251183;22;20012;-89
2023/10/20 21:09:49;;;;;;;9.82;5.97;;;;;;;;;;6250984;22;20003;-89
2023/10/20 21:12:14;;;;;;;9.93;5.30;;;;;;;;;;6278114;22;20022;-90
2023/10/20 21:14:40;;;;;;;8.40;5.22;;;;;;;;;;6277613;22;20007;-88
2023/10/20 21:17:05;;;;;;;9.27;4.90;;;;;;;;;;6278071;22;20004;-90
2023/10/20 21:19:32;;;;;;;6.75;4.70;;;;;;;;;;6277157;22;20079;-89
2023/10/20 21:21:58;;;;;;;5.95;4.72;;;;;;;;;;6250437;22;20000;-90
2023/10/20 21:24:23;;;;;;;9.63;5.35;;;;;;;;;;6277321;22;19992;-89
2023/10/20 21:26:52;;;;;;;10.38;5.50;;;;;;;;;;6250106;22;20031;-89
2023/10/20 21:29:17;;;;;;;7.55;4.97;;;;;;;;;;6249811;22;20008;-89
2023/10/20 21:31:43;;;;;;;5.70;4.63;;;;;;;;;;6277140;22;20423;-90
2023/10/20 21:34:08;;;;;;;7.35;4.63;;;;;;;;;;6278523;22;20323;-90
2023/10/20 21:36:33;;;;;;;9.68;5.50;;;;;;;;;;6252188;22;20003;-89
2023/10/20 21:38:59;;;;;;;7.93;5.22;;;;;;;;;;6251778;22;20077;-90
2023/10/20 21:41:25;;;;;;;9.30;5.78;;;;;;;;;;6278933;22;20010;-90
2023/10/20 21:43:50;;;;;;;10.68;5.38;;;;;;;;;;6251924;22;20475;-90
2023/10/20 21:46:16;;;;;;;9.57;5.38;;;;;;;;;;6278569;22;20011;-89
2023/10/20 21:48:41;;;;;;;7.13;5.05;;;;;;;;;;6251704;22;20031;-90
2023/10/20 21:51:10;;;;;;;11.30;5.28;;;;;;;;;;6247245;23;20020;-88
2023/10/20 21:53:38;;;;;;;14.33;5.03;;;;;;;;;;6245857;23;20010;-88
2023/10/20 21:56:06;;;;;;;9.10;4.90;;;;;;;;;;6247941;22;20545;-89
2023/10/20 21:58:31;;;;;;;8.85;4.93;;;;;;;;;;6246515;23;20011;-88
2023/10/20 22:00:58;;;;;;;11.18;5.00;;;;;;;;;;6247919;22;20327;-88
2023/10/20 22:03:25;;;;;;;8.77;5.15;;;;;;;;;;6246482;23;20008;-88
2023/10/20 22:05:54;;;;;;;8.95;4.32;;;;;;;;;;6246388;23;20084;-88
2023/10/20 22:08:20;;;;;;;8.07;4.35;;;;;;;;;;6246391;23;20035;-87
2023/10/20 22:10:46;;;;;;;7.03;4.57;;;;;;;;;;6247674;22;20008;-87
2023/10/20 22:13:11;;;;;;;8.63;4.40;;;;;;;;;;6246160;23;20331;-87
2023/10/20 22:15:37;;;;;;;9.48;4.47;;;;;;;;;;6247854;22;20419;-87
2023/10/20 22:18:03;;;;;;;7.53;4.20;;;;;;;;;;6248126;22;20029;-88
2023/10/20 22:20:29;;;;;;;7.10;4.95;;;;;;;;;;6246746;23;20011;-88
2023/10/20 22:22:55;;;;;;;9.10;4.90;;;;;;;;;;6246799;23;20008;-88
2023/10/20 22:25:21;;;;;;;6.68;4.32;;;;;;;;;;6248514;22;20348;-88
2023/10/20 22:27:46;;;;;;;7.32;4.57;;;;;;;;;;6254015;23;20011;-89
2023/10/20 22:30:12;;;;;;;7.40;4.63;;;;;;;;;;6254900;22;20039;-88
2023/10/20 22:32:38;;;;;;;8.68;5.07;;;;;;;;;;6254107;23;20003;-87
2023/10/20 22:35:04;;;;;;;8.13;4.75;;;;;;;;;;6250007;23;20004;-87
2023/10/20 22:37:30;;;;;;;8.75;4.80;;;;;;;;;;6254933;22;20001;-88
2023/10/20 22:39:56;;;;;;;9.15;4.57;;;;;;;;;;6247176;23;20004;-87
2023/10/20 22:42:21;;;;;;;7.07;4.68;;;;;;;;;;6247901;22;20000;-87
2023/10/20 22:44:47;;;;;;;7.45;4.35;;;;;;;;;;6245807;23;20433;-87
2023/10/20 22:47:12;;;;;;;6.07;4.40;;;;;;;;;;6245727;23;20079;-88
2023/10/20 22:49:38;;;;;;;7.15;4.93;;;;;;;;;;6255807;22;20038;-87
2023/10/20 22:52:04;;;;;;;9.38;5.70;;;;;;;;;;6278102;22;20071;-86
2023/10/20 22:54:29;;;;;;;11.18;4.93;;;;;;;;;;6277993;22;20450;-87
2023/10/20 22:56:54;;;;;;;9.10;5.20;;;;;;;;;;6277873;22;20437;-87
2023/10/20 22:59:20;;;;;;;9.65;5.40;;;;;;;;;;6250405;22;20430;-88
2023/10/20 23:01:46;;;;;;;8.13;4.68;;;;;;;;;;6278263;22;20007;-90
2023/10/20 23:04:11;;;;;;;7.38;3.90;;;;;;;;;;6250812;22;20007;-88
2023/10/20 23:06:36;;;;;;;10.05;4.25;;;;;;;;;;6278676;22;20004;-90
2023/10/20 23:09:03;;;;;;;7.85;4.10;;;;;;;;;;6250549;22;20003;-87
2023/10/20 23:11:28;;;;;;;7.20;4.10;;;;;;;;;;6250610;22;20011;-90
2023/10/20 23:13:53;;;;;;;14.20;4.55;;;;;;;;;;6278121;22;20327;-90
2023/10/20 23:16:19;;;;;;;7.63;4.10;;;;;;;;;;6278114;22;20419;-89
2023/10/20 23:18:46;;;;;;;9.60;5.00;;;;;;;;;;6250703;22;20431;-89
2023/10/20 23:21:12;;;;;;;8.25;4.22;;;;;;;;;;6251083;22;20488;-89
2023/10/20 23:23:37;;;;;;;9.25;4.28;;;;;;;;;;6251047;22;19995;-89
2023/10/20 23:26:03;;;;;;;9.70;4.78;;;;;;;;;;6277967;22;20006;-89
2023/10/20 23:28:28;;;;;;;9.75;4.03;;;;;;;;;;6277673;22;19999;-89
2023/10/20 23:30:54;;;;;;;9.98;3.92;;;;;;;;;;6277901;22;20006;-89
2023/10/20 23:33:19;;;;;;;6.88;3.88;;;;;;;;;;6278125;22;20004;-89
2023/10/20 23:35:47;;;;;;;8.35;4.20;;;;;;;;;;6250498;22;20015;-88
2023/10/20 23:38:12;;;;;;;10.70;4.13;;;;;;;;;;6250661;22;20474;-88
2023/10/20 23:40:38;;;;;;;9.52;4.65;;;;;;;;;;6251318;22;20004;-89
2023/10/20 23:43:06;;;;;;;5.50;3.80;;;;;;;;;;6250744;22;20003;-88
2023/10/20 23:45:31;;;;;;;6.25;3.65;;;;;;;;;;6277727;22;20003;-89
2023/10/20 23:47:57;;;;;;;5.88;4.00;;;;;;;;;;6278279;22;20007;-89
2023/10/20 23:50:22;;;;;;;6.97;3.92;;;;;;;;;;6250356;22;20090;-89
2023/10/20 23:52:48;;;;;;;9.55;3.65;;;;;;;;;;6250445;22;20053;-89
2023/10/20 23:55:13;;;;;;;6.93;3.28;;;;;;;;;;6277524;22;20080;-89
2023/10/20 23:57:39;;;;;;;7.70;3.70;;;;;;;;;;6277344;22;20008;-89
